createdAt,value
2019-02-16T00:00:26.949Z,108.40
2019-02-16T00:01:34.709Z,89.47
2019-02-16T00:02:40.944Z,94.55
2019-02-16T00:03:47.245Z,80.32
2019-02-16T00:04:53.412Z,81.57
2019-02-16T00:05:59.677Z,81.65
2019-02-16T00:07:05.618Z,75.47
2019-02-16T00:08:11.785Z,75.70
2019-02-16T00:09:17.841Z,73.72
2019-02-16T00:10:23.579Z,73.83
2019-02-16T00:11:29.697Z,93.92
2019-02-16T00:12:35.905Z,101.65
2019-02-16T00:13:41.932Z,90.05
2019-02-16T00:14:48.257Z,86.12
2019-02-16T00:15:54.309Z,75.37
2019-02-16T00:17:00.406Z,69.95
2019-02-16T00:18:06.588Z,73.60
2019-02-16T00:19:12.774Z,65.03
2019-02-16T00:20:18.604Z,72.42
2019-02-16T00:21:24.768Z,73.50
2019-02-16T00:22:31.064Z,69.87
2019-02-16T00:23:37.307Z,60.90
2019-02-16T00:24:43.614Z,60.15
2019-02-16T00:25:49.959Z,64.47
2019-02-16T00:26:56.114Z,59.53
2019-02-16T00:28:02.226Z,65.78
2019-02-16T00:29:08.506Z,72.22
2019-02-16T00:30:14.717Z,60.33
2019-02-16T00:31:21.011Z,60.23
2019-02-16T00:32:27.283Z,64.77
2019-02-16T00:33:33.214Z,73.78
2019-02-16T00:34:39.410Z,53.73
2019-02-16T00:35:45.655Z,55.15
2019-02-16T00:36:51.855Z,61.50
2019-02-16T00:37:57.928Z,69.10
2019-02-16T00:39:04.374Z,56.60
2019-02-16T00:40:10.680Z,55.28
2019-02-16T00:41:16.811Z,71.70
2019-02-16T00:42:22.936Z,56.95
2019-02-16T00:43:28.983Z,61.00
2019-02-16T00:44:35.249Z,63.52
2019-02-16T00:45:41.422Z,62.25
2019-02-16T00:46:47.497Z,55.67
2019-02-16T00:47:53.797Z,56.28
2019-02-16T00:48:59.850Z,63.63
2019-02-16T00:50:06.243Z,69.90
2019-02-16T00:51:13.876Z,59.03
2019-02-16T00:52:20.524Z,50.73
2019-02-16T00:53:27.032Z,59.40
2019-02-16T00:54:33.198Z,57.17
2019-02-16T00:55:39.233Z,73.45
2019-02-16T00:56:45.371Z,59.35
2019-02-16T00:57:51.628Z,66.47
2019-02-16T00:58:58.026Z,61.40
2019-02-16T01:00:04.386Z,60.65
2019-02-16T01:01:11.521Z,54.15
2019-02-16T01:02:17.877Z,50.35
2019-02-16T01:03:25.056Z,50.63
2019-02-16T01:04:31.690Z,53.10
2019-02-16T01:05:37.838Z,49.20
2019-02-16T01:06:44.328Z,59.67
2019-02-16T01:07:50.401Z,58.17
2019-02-16T01:08:56.621Z,57.75
2019-02-16T01:10:02.998Z,46.98
2019-02-16T01:11:09.120Z,67.32
2019-02-16T01:12:15.404Z,55.35
2019-02-16T01:13:21.680Z,60.52
2019-02-16T01:14:28.070Z,72.17
2019-02-16T01:15:34.300Z,57.10
2019-02-16T01:16:40.629Z,85.60
2019-02-16T01:17:47.117Z,58.83
2019-02-16T01:18:53.345Z,59.25
2019-02-16T01:19:59.374Z,67.37
2019-02-16T01:21:05.663Z,64.60
2019-02-16T01:22:11.837Z,58.23
2019-02-16T01:23:18.189Z,57.15
2019-02-16T01:24:24.349Z,89.22
2019-02-16T01:25:30.421Z,53.50
2019-02-16T01:26:36.533Z,80.30
2019-02-16T01:27:42.635Z,92.15
2019-02-16T01:28:49.699Z,65.20
2019-02-16T01:29:55.819Z,57.40
2019-02-16T01:31:01.892Z,62.73
2019-02-16T01:32:08.246Z,65.03
2019-02-16T01:33:14.317Z,54.05
2019-02-16T01:34:20.411Z,62.60
2019-02-16T01:35:26.374Z,79.22
2019-02-16T01:36:33.540Z,74.27
2019-02-16T01:37:40.001Z,123.90
2019-02-16T01:38:46.014Z,59.05
2019-02-16T01:39:52.268Z,101.45
2019-02-16T01:40:58.342Z,63.92
2019-02-16T01:42:04.557Z,54.95
2019-02-16T01:43:10.814Z,87.22
2019-02-16T01:44:17.035Z,98.52
2019-02-16T01:45:23.167Z,89.00
2019-02-16T01:46:29.288Z,67.53
2019-02-16T01:47:35.774Z,61.92
2019-02-16T01:48:42.027Z,88.40
2019-02-16T01:49:48.251Z,50.60
2019-02-16T01:50:54.524Z,93.97
2019-02-16T01:52:00.701Z,48.68
2019-02-16T01:53:06.965Z,59.95
2019-02-16T01:54:13.184Z,98.80
2019-02-16T01:55:19.247Z,60.60
2019-02-16T01:56:25.334Z,95.22
2019-02-16T01:57:31.378Z,92.20
2019-02-16T01:58:37.571Z,65.30
2019-02-16T01:59:43.652Z,66.00
2019-02-16T02:00:49.750Z,60.95
2019-02-16T02:01:55.733Z,103.12
2019-02-16T02:03:01.866Z,55.33
2019-02-16T02:04:07.958Z,71.30
2019-02-16T02:05:14.320Z,72.90
2019-02-16T02:06:20.426Z,70.40
2019-02-16T02:07:26.734Z,73.70
2019-02-16T02:08:32.967Z,96.20
2019-02-16T02:09:39.227Z,79.72
2019-02-16T02:10:45.265Z,66.10
2019-02-16T02:11:51.654Z,120.92
2019-02-16T02:12:57.629Z,123.95
2019-02-16T02:14:03.605Z,89.03
2019-02-16T02:15:10.249Z,92.72
2019-02-16T02:16:16.530Z,97.78
2019-02-16T02:17:22.688Z,64.67
2019-02-16T02:18:28.819Z,70.37
2019-02-16T02:19:35.185Z,66.35
2019-02-16T02:20:41.488Z,63.33
2019-02-16T02:21:47.659Z,65.80
2019-02-16T02:22:53.934Z,121.00
2019-02-16T02:23:59.978Z,115.03
2019-02-16T02:25:07.476Z,71.95
2019-02-16T02:26:13.620Z,112.25
2019-02-16T02:27:19.955Z,59.77
2019-02-16T02:28:25.840Z,66.92
2019-02-16T02:29:32.287Z,57.45
2019-02-16T02:30:38.539Z,101.82
2019-02-16T02:31:44.659Z,91.70
2019-02-16T02:32:50.766Z,58.40
2019-02-16T02:33:56.984Z,55.12
2019-02-16T02:35:06.586Z,68.60
2019-02-16T02:36:12.642Z,89.35
2019-02-16T02:37:18.886Z,86.42
2019-02-16T02:38:25.118Z,137.12
2019-02-16T02:39:31.417Z,47.23
2019-02-16T02:40:37.332Z,92.30
2019-02-16T02:41:44.419Z,53.83
2019-02-16T02:42:50.484Z,67.35
2019-02-16T02:43:56.550Z,60.98
2019-02-16T02:45:02.589Z,73.22
2019-02-16T02:46:09.866Z,58.42
2019-02-16T02:47:16.176Z,51.90
2019-02-16T02:48:22.254Z,50.48
2019-02-16T02:49:28.617Z,55.03
2019-02-16T02:50:34.707Z,66.12
2019-02-16T02:51:51.500Z,46.45
2019-02-16T02:52:48.585Z,49.53
2019-02-16T02:53:54.785Z,57.78
2019-02-16T02:55:01.092Z,64.58
2019-02-16T02:56:07.256Z,58.02
2019-02-16T02:57:13.544Z,62.62
2019-02-16T02:58:19.730Z,46.05
2019-02-16T02:59:25.825Z,58.85
2019-02-16T03:00:31.860Z,77.80
2019-02-16T03:01:40.255Z,75.32
2019-02-16T03:02:46.181Z,92.50
2019-02-16T03:03:52.286Z,150.42
2019-02-16T03:05:01.247Z,77.65
2019-02-16T03:06:07.518Z,97.62
2019-02-16T03:07:13.666Z,89.50
2019-02-16T03:08:19.894Z,61.30
2019-02-16T03:09:25.976Z,63.08
2019-02-16T03:10:32.126Z,48.60
2019-02-16T03:11:38.295Z,41.73
2019-02-16T03:12:44.446Z,51.33
2019-02-16T03:13:50.647Z,45.08
2019-02-16T03:14:56.741Z,43.98
2019-02-16T03:16:03.099Z,44.60
2019-02-16T03:17:09.229Z,51.13
2019-02-16T03:18:15.286Z,36.38
2019-02-16T03:19:21.584Z,48.70
2019-02-16T03:20:27.699Z,41.20
2019-02-16T03:21:34.096Z,44.00
2019-02-16T03:23:17.285Z,34.58
2019-02-16T03:24:23.214Z,33.23
2019-02-16T03:25:29.474Z,57.55
2019-02-16T03:27:06.633Z,49.90
2019-02-16T03:28:42.358Z,40.25
2019-02-16T03:30:53.653Z,44.25
2019-02-16T03:32:39.208Z,45.58
2019-02-16T03:33:52.806Z,35.88
2019-02-16T03:35:31.744Z,42.08
2019-02-16T03:37:03.448Z,50.33
2019-02-16T03:39:01.798Z,37.15
2019-02-16T03:40:09.697Z,39.33
2019-02-16T03:41:15.985Z,43.73
2019-02-16T03:42:22.216Z,35.58
2019-02-16T03:43:28.474Z,50.08
2019-02-16T03:44:34.777Z,110.68
2019-02-16T03:45:40.926Z,39.55
2019-02-16T03:46:47.358Z,46.20
2019-02-16T03:47:53.465Z,43.78
2019-02-16T03:48:59.528Z,41.68
2019-02-16T03:50:05.758Z,51.45
2019-02-16T03:51:12.551Z,59.35
2019-02-16T03:52:18.680Z,50.33
2019-02-16T03:53:24.855Z,60.90
2019-02-16T03:54:31.189Z,44.53
2019-02-16T03:55:37.349Z,57.78
2019-02-16T03:56:43.796Z,40.43
2019-02-16T03:57:49.937Z,36.15
2019-02-16T03:58:56.040Z,40.33
2019-02-16T04:00:02.112Z,39.05
2019-02-16T04:01:08.306Z,35.65
2019-02-16T04:02:14.629Z,57.78
2019-02-16T04:03:20.530Z,38.53
2019-02-16T04:04:26.598Z,54.38
2019-02-16T04:05:32.692Z,41.02
2019-02-16T04:06:38.750Z,37.10
2019-02-16T04:07:45.111Z,62.55
2019-02-16T04:08:51.355Z,42.00
2019-02-16T04:09:58.736Z,45.98
2019-02-16T04:11:04.898Z,42.93
2019-02-16T04:12:11.048Z,43.52
2019-02-16T04:13:17.239Z,68.55
2019-02-16T04:14:23.365Z,75.20
2019-02-16T04:15:29.607Z,95.53
2019-02-16T04:16:35.649Z,33.90
2019-02-16T04:17:41.798Z,34.83
2019-02-16T04:18:48.004Z,39.00
2019-02-16T04:19:54.208Z,35.70
2019-02-16T04:21:00.332Z,54.67
2019-02-16T04:22:07.836Z,86.65
2019-02-16T04:23:14.098Z,29.95
2019-02-16T04:24:20.274Z,32.53
2019-02-16T04:25:26.516Z,36.28
2019-02-16T04:26:32.595Z,46.65
2019-02-16T04:27:38.787Z,28.52
2019-02-16T04:28:44.870Z,32.50
2019-02-16T04:29:51.410Z,28.12
2019-02-16T04:30:57.505Z,29.27
2019-02-16T04:32:04.100Z,27.42
2019-02-16T04:33:10.268Z,36.15
2019-02-16T04:34:16.304Z,25.27
2019-02-16T04:35:22.608Z,29.15
2019-02-16T04:36:28.848Z,31.57
2019-02-16T04:37:34.984Z,27.93
2019-02-16T04:38:41.166Z,33.80
2019-02-16T04:39:47.283Z,27.35
2019-02-16T04:40:53.478Z,39.23
2019-02-16T04:41:59.468Z,28.17
2019-02-16T04:43:06.520Z,26.33
2019-02-16T04:44:12.571Z,31.40
2019-02-16T04:45:18.808Z,43.23
2019-02-16T04:46:25.008Z,36.38
2019-02-16T04:47:31.245Z,36.00
2019-02-16T04:48:37.185Z,39.10
2019-02-16T04:49:43.334Z,53.45
2019-02-16T04:50:49.992Z,30.15
2019-02-16T04:51:56.036Z,33.67
2019-02-16T04:53:02.147Z,27.10
2019-02-16T04:54:08.417Z,53.73
2019-02-16T04:55:14.692Z,71.02
2019-02-16T04:56:21.157Z,36.30
2019-02-16T04:57:28.336Z,46.88
2019-02-16T04:58:34.405Z,47.83
2019-02-16T04:59:40.466Z,53.28
2019-02-16T05:00:46.714Z,37.93
2019-02-16T05:01:53.051Z,43.40
2019-02-16T05:02:59.216Z,72.15
2019-02-16T05:04:05.353Z,66.25
2019-02-16T05:05:11.915Z,69.55
2019-02-16T05:06:18.194Z,90.57
2019-02-16T05:07:24.537Z,66.30
2019-02-16T05:08:30.786Z,103.42
2019-02-16T05:09:37.010Z,170.75
2019-02-16T05:10:43.091Z,44.10
2019-02-16T05:11:49.153Z,49.90
2019-02-16T05:12:55.337Z,46.23
2019-02-16T05:14:01.627Z,36.93
2019-02-16T05:15:08.240Z,46.65
2019-02-16T05:16:14.483Z,43.92
2019-02-16T05:17:20.493Z,68.07
2019-02-16T05:18:26.703Z,40.95
2019-02-16T05:19:33.015Z,54.38
2019-02-16T05:20:39.186Z,86.60
2019-02-16T05:21:45.411Z,58.55
2019-02-16T05:22:51.556Z,36.73
2019-02-16T05:23:57.866Z,63.52
2019-02-16T05:25:03.992Z,57.40
2019-02-16T05:26:10.168Z,79.03
2019-02-16T05:27:16.181Z,71.60
2019-02-16T05:28:22.066Z,67.62
2019-02-16T05:29:28.339Z,30.35
2019-02-16T05:30:34.625Z,45.40
2019-02-16T05:31:40.786Z,64.60
2019-02-16T05:32:47.056Z,50.35
2019-02-16T05:33:53.268Z,42.55
2019-02-16T05:35:00.286Z,66.80
2019-02-16T05:36:06.533Z,49.15
2019-02-16T05:37:12.787Z,34.90
2019-02-16T05:38:19.110Z,33.67
2019-02-16T05:39:25.464Z,40.25
2019-02-16T05:40:31.725Z,24.32
2019-02-16T05:41:37.754Z,41.75
2019-02-16T05:42:44.109Z,23.83
2019-02-16T05:43:50.386Z,27.22
2019-02-16T05:44:56.747Z,35.48
2019-02-16T05:46:03.097Z,37.20
2019-02-16T05:47:09.362Z,43.28
2019-02-16T05:48:15.558Z,35.38
2019-02-16T05:49:21.753Z,33.83
2019-02-16T05:50:28.006Z,43.92
2019-02-16T05:51:34.437Z,42.48
2019-02-16T05:52:40.875Z,28.67
2019-02-16T05:53:47.704Z,57.98
2019-02-16T05:54:53.937Z,38.70
2019-02-16T05:56:00.214Z,34.15
2019-02-16T05:57:06.344Z,42.83
2019-02-16T05:58:12.354Z,69.80
2019-02-16T05:59:19.956Z,98.25
2019-02-16T06:00:28.007Z,34.23
2019-02-16T06:01:34.053Z,59.42
2019-02-16T06:02:40.125Z,108.83
2019-02-16T06:03:46.259Z,57.40
2019-02-16T06:04:52.312Z,57.00
2019-02-16T06:05:58.269Z,74.90
2019-02-16T06:07:04.788Z,62.25
2019-02-16T06:08:11.367Z,72.50
2019-02-16T06:09:17.590Z,51.73
2019-02-16T06:10:23.735Z,48.80
2019-02-16T06:11:29.799Z,50.12
2019-02-16T06:12:36.108Z,53.55
2019-02-16T06:13:43.380Z,65.08
2019-02-16T06:14:49.602Z,61.85
2019-02-16T06:15:55.925Z,72.08
2019-02-16T06:17:03.160Z,48.50
2019-02-16T06:18:09.315Z,47.23
2019-02-16T06:19:15.269Z,61.42
2019-02-16T06:20:30.466Z,47.70
2019-02-16T06:21:36.667Z,53.50
2019-02-16T06:22:42.871Z,102.95
2019-02-16T06:23:49.096Z,80.05
2019-02-16T06:24:55.647Z,50.20
2019-02-16T06:26:01.755Z,45.03
2019-02-16T06:27:07.838Z,70.62
2019-02-16T06:28:15.711Z,70.50
2019-02-16T06:29:21.814Z,38.83
2019-02-16T06:30:31.235Z,45.58
2019-02-16T06:31:37.311Z,51.90
2019-02-16T06:32:43.671Z,56.48
2019-02-16T06:33:49.798Z,52.67
2019-02-16T06:35:04.101Z,41.45
2019-02-16T06:36:14.486Z,56.15
2019-02-16T06:37:24.725Z,64.58
2019-02-16T06:38:30.823Z,48.73
2019-02-16T06:39:36.867Z,42.03
2019-02-16T06:40:46.842Z,50.63
2019-02-16T06:41:52.905Z,55.83
2019-02-16T06:43:01.970Z,37.23
2019-02-16T06:44:07.986Z,33.73
2019-02-16T06:45:13.883Z,35.48
2019-02-16T06:46:19.846Z,29.20
2019-02-16T06:47:25.965Z,26.17
2019-02-16T06:48:32.171Z,25.32
2019-02-16T06:49:38.257Z,28.35
2019-02-16T06:50:44.193Z,37.33
2019-02-16T06:51:50.111Z,38.55
2019-02-16T06:52:56.023Z,51.20
2019-02-16T06:54:02.633Z,36.75
2019-02-16T06:55:08.834Z,56.18
2019-02-16T06:56:33.805Z,36.15
2019-02-16T06:57:42.263Z,39.98
2019-02-16T06:58:48.394Z,52.23
2019-02-16T06:59:54.304Z,49.23
2019-02-16T07:01:00.767Z,37.58
2019-02-16T07:02:07.964Z,42.05
2019-02-16T07:03:15.152Z,40.12
2019-02-16T07:04:21.979Z,47.25
2019-02-16T07:05:28.163Z,38.25
2019-02-16T07:06:34.383Z,44.50
2019-02-16T07:07:40.467Z,47.27
2019-02-16T07:08:46.663Z,36.85
2019-02-16T07:09:53.174Z,46.25
2019-02-16T07:10:59.347Z,51.37
2019-02-16T07:12:05.439Z,48.02
2019-02-16T07:13:13.514Z,47.17
2019-02-16T07:14:19.868Z,71.95
2019-02-16T07:15:26.185Z,47.95
2019-02-16T07:16:47.594Z,64.97
2019-02-16T07:18:05.014Z,65.30
2019-02-16T07:19:18.306Z,38.05
2019-02-16T07:20:25.259Z,38.17
2019-02-16T07:21:31.513Z,58.35
2019-02-16T07:22:38.555Z,70.08
2019-02-16T07:23:44.646Z,28.32
2019-02-16T07:24:50.586Z,48.90
2019-02-16T07:25:56.763Z,36.17
2019-02-16T07:27:03.738Z,38.25
2019-02-16T07:28:09.929Z,44.42
2019-02-16T07:29:16.374Z,33.42
2019-02-16T07:30:22.285Z,41.08
2019-02-16T07:31:28.714Z,41.70
2019-02-16T07:32:34.944Z,31.37
2019-02-16T07:33:42.145Z,58.08
2019-02-16T07:34:49.655Z,37.08
2019-02-16T07:35:55.662Z,37.55
2019-02-16T07:37:06.488Z,41.63
2019-02-16T07:38:13.283Z,35.98
2019-02-16T07:39:20.859Z,36.63
2019-02-16T07:40:27.881Z,30.92
2019-02-16T07:41:34.133Z,39.83
2019-02-16T07:42:59.242Z,35.20
2019-02-16T07:44:15.723Z,34.80
2019-02-16T07:45:42.061Z,37.90
2019-02-16T07:47:02.342Z,38.78
2019-02-16T07:48:27.133Z,38.75
2019-02-16T07:49:55.175Z,43.80
2019-02-16T07:51:26.031Z,23.50
2019-02-16T07:52:48.632Z,28.30
2019-02-16T07:54:29.027Z,35.08
2019-02-16T07:56:06.194Z,33.48
2019-02-16T07:57:21.321Z,33.38
2019-02-16T07:58:58.741Z,34.13
2019-02-16T08:00:11.225Z,30.15
2019-02-16T08:01:25.775Z,33.73
2019-02-16T08:02:54.274Z,31.48
2019-02-16T08:04:08.497Z,39.00
2019-02-16T08:05:32.375Z,31.35
2019-02-16T08:07:06.190Z,39.13
2019-02-16T08:08:22.456Z,36.10
2019-02-16T08:09:47.849Z,36.65
2019-02-16T08:11:13.066Z,37.73
2019-02-16T08:12:25.665Z,35.60
2019-02-16T08:13:42.975Z,42.53
2019-02-16T08:15:03.796Z,38.20
2019-02-16T08:16:31.641Z,39.55
2019-02-16T08:18:04.411Z,35.10
2019-02-16T08:19:24.368Z,38.30
2019-02-16T08:20:55.822Z,34.15
2019-02-16T08:22:20.909Z,33.88
2019-02-16T08:24:01.237Z,33.35
2019-02-16T08:25:28.795Z,37.55
2019-02-16T08:27:06.420Z,36.20
2019-02-16T08:28:23.306Z,37.00
2019-02-16T08:29:45.337Z,40.60
2019-02-16T08:31:29.058Z,35.08
2019-02-16T08:32:54.379Z,41.28
2019-02-16T08:34:19.734Z,39.08
2019-02-16T08:35:53.663Z,45.52
2019-02-16T08:37:21.844Z,46.88
2019-02-16T08:39:01.770Z,44.85
2019-02-16T08:40:34.035Z,39.78
2019-02-16T08:41:58.921Z,46.15
2019-02-16T08:43:22.586Z,45.28
2019-02-16T08:45:02.937Z,43.20
2019-02-16T08:46:37.368Z,45.20
2019-02-16T08:48:02.343Z,46.48
2019-02-16T08:49:27.746Z,42.38
2019-02-16T08:50:41.885Z,53.20
2019-02-16T08:51:58.377Z,47.95
2019-02-16T08:53:20.094Z,58.80
2019-02-16T08:54:36.488Z,56.90
2019-02-16T08:56:10.569Z,49.55
2019-02-16T08:57:38.559Z,47.33
2019-02-16T08:58:56.278Z,44.35
2019-02-16T09:00:30.399Z,50.63
2019-02-16T09:01:52.096Z,48.98
2019-02-16T09:03:18.962Z,42.45
2019-02-16T09:04:42.798Z,41.45
2019-02-16T09:06:26.130Z,44.88
2019-02-16T09:07:51.213Z,44.25
2019-02-16T09:09:22.759Z,38.92
2019-02-16T09:10:53.697Z,38.53
2019-02-16T09:12:14.792Z,38.58
2019-02-16T09:13:36.623Z,39.95
2019-02-16T09:14:51.875Z,35.75
2019-02-16T09:16:07.003Z,41.75
2019-02-16T09:17:40.220Z,38.35
2019-02-16T09:19:08.295Z,41.05
2019-02-16T09:20:42.597Z,32.83
2019-02-16T09:21:57.147Z,32.85
2019-02-16T09:23:25.118Z,30.82
2019-02-16T09:24:42.008Z,33.38
2019-02-16T09:26:07.010Z,33.90
2019-02-16T09:27:32.106Z,31.82
2019-02-16T09:28:56.064Z,29.70
2019-02-16T09:30:11.030Z,31.05
2019-02-16T09:31:38.789Z,33.30
2019-02-16T09:33:02.971Z,32.42
2019-02-16T09:34:21.574Z,35.95
2019-02-16T09:35:45.359Z,33.13
2019-02-16T09:37:10.973Z,31.77
2019-02-16T09:38:27.674Z,30.65
2019-02-16T09:39:55.737Z,33.58
2019-02-16T09:44:07.954Z,32.60
2019-02-16T09:45:39.193Z,31.17
2019-02-16T09:47:03.454Z,32.30
2019-02-16T09:48:19.238Z,32.55
2019-02-16T09:49:50.280Z,37.70
2019-02-16T09:51:18.230Z,48.80
2019-02-16T09:52:41.991Z,48.73
2019-02-16T09:54:13.440Z,55.52
2019-02-16T09:55:50.830Z,42.78
2019-02-16T09:57:15.915Z,35.73
2019-02-16T09:58:40.101Z,33.75
2019-02-16T10:00:02.314Z,32.50
2019-02-16T10:01:22.600Z,31.27
2019-02-16T10:02:38.576Z,33.33
2019-02-16T10:04:18.844Z,32.42
2019-02-16T10:05:46.793Z,32.65
2019-02-16T10:07:10.556Z,35.68
2019-02-16T10:08:35.661Z,31.55
2019-02-16T10:10:06.479Z,31.57
2019-02-16T10:11:34.136Z,31.25
2019-02-16T10:13:08.146Z,30.88
2019-02-16T10:14:23.692Z,30.52
2019-02-16T10:15:54.760Z,30.35
2019-02-16T10:17:09.948Z,31.60
2019-02-16T10:18:40.941Z,32.20
2019-02-16T10:19:59.482Z,32.70
2019-02-16T10:21:32.684Z,30.97
2019-02-16T10:22:56.138Z,34.35
2019-02-16T10:24:20.209Z,35.15
2019-02-16T10:25:51.852Z,35.25
2019-02-16T10:27:20.844Z,31.57
2019-02-16T10:28:51.864Z,30.97
2019-02-16T10:30:05.798Z,29.05
2019-02-16T10:31:37.241Z,28.60
2019-02-16T10:33:17.390Z,30.43
2019-02-16T10:34:43.203Z,31.73
2019-02-16T10:36:02.250Z,29.70
2019-02-16T10:37:30.108Z,32.93
2019-02-16T10:39:13.440Z,33.90
2019-02-16T10:40:38.608Z,34.50
2019-02-16T10:42:02.402Z,32.60
2019-02-16T10:43:19.608Z,36.83
2019-02-16T10:44:50.954Z,34.45
2019-02-16T10:46:15.941Z,31.40
2019-02-16T10:47:39.921Z,34.00
2019-02-16T10:49:10.550Z,34.08
2019-02-16T10:50:25.901Z,30.80
2019-02-16T10:51:44.335Z,29.52
2019-02-16T10:53:12.194Z,34.50
2019-02-16T10:54:40.054Z,28.52
2019-02-16T10:56:08.128Z,29.85
2019-02-16T10:57:39.574Z,31.27
2019-02-16T10:59:03.412Z,30.12
2019-02-16T11:00:27.691Z,30.62
2019-02-16T11:01:51.374Z,35.75
2019-02-16T11:03:10.504Z,28.60
2019-02-16T11:04:38.173Z,28.35
2019-02-16T11:05:50.790Z,31.45
2019-02-16T11:07:21.915Z,30.68
2019-02-16T11:08:44.972Z,31.10
2019-02-16T11:10:22.153Z,31.15
2019-02-16T11:11:49.801Z,27.87
2019-02-16T11:13:17.873Z,29.63
2019-02-16T11:14:45.729Z,30.90
2019-02-16T11:16:13.794Z,31.73
2019-02-16T11:17:50.973Z,29.57
2019-02-16T11:19:15.039Z,31.75
2019-02-16T11:20:39.014Z,28.30
2019-02-16T11:21:55.075Z,29.57
2019-02-16T11:23:29.609Z,33.18
2019-02-16T11:24:57.272Z,32.20
2019-02-16T11:26:20.795Z,29.67
2019-02-16T11:27:51.649Z,33.00
2019-02-16T11:29:19.929Z,30.92
2019-02-16T11:30:53.822Z,31.68
2019-02-16T11:32:17.884Z,28.70
2019-02-16T11:33:41.663Z,32.73
2019-02-16T11:34:58.867Z,32.70
2019-02-16T11:36:33.168Z,31.70
2019-02-16T11:38:04.629Z,36.13
2019-02-16T11:39:17.960Z,35.50
2019-02-16T11:40:31.886Z,35.55
2019-02-16T11:42:02.612Z,34.40
2019-02-16T11:43:24.732Z,32.53
2019-02-16T11:44:59.138Z,36.33
2019-02-16T11:46:27.197Z,35.38
2019-02-16T11:47:55.276Z,41.55
2019-02-16T11:49:20.534Z,34.83
2019-02-16T11:51:00.710Z,33.83
2019-02-16T11:52:24.407Z,31.68
2019-02-16T11:53:45.794Z,30.43
2019-02-16T11:55:13.641Z,32.60
2019-02-16T11:56:41.507Z,34.38
2019-02-16T11:58:03.224Z,32.38
2019-02-16T11:59:28.307Z,38.15
2019-02-16T12:00:42.050Z,38.17
2019-02-16T12:02:05.860Z,36.65
2019-02-16T12:03:36.919Z,35.70
2019-02-16T12:05:05.214Z,37.67
2019-02-16T12:06:23.556Z,33.58
2019-02-16T12:08:07.173Z,36.30
2019-02-16T12:09:32.880Z,40.12
2019-02-16T12:10:46.820Z,36.55
2019-02-16T12:12:18.969Z,34.92
2019-02-16T12:13:42.749Z,32.17
2019-02-16T12:15:07.935Z,38.02
2019-02-16T12:16:22.410Z,35.92
2019-02-16T12:17:47.074Z,40.60
2019-02-16T12:19:08.276Z,40.58
2019-02-16T12:20:48.621Z,37.50
2019-02-16T12:22:16.687Z,35.65
2019-02-16T12:23:30.396Z,35.95
2019-02-16T12:25:04.797Z,31.52
2019-02-16T12:26:08.844Z,36.65
2019-02-16T12:27:34.035Z,34.83
2019-02-16T12:28:59.226Z,40.65
2019-02-16T12:30:12.967Z,32.30
2019-02-16T12:31:36.818Z,36.75
2019-02-16T12:32:59.046Z,36.88
2019-02-16T12:34:33.355Z,36.65
2019-02-16T12:35:58.767Z,38.10
2019-02-16T12:37:13.931Z,37.93
2019-02-16T12:38:38.996Z,39.60
2019-02-16T12:39:54.483Z,38.17
2019-02-16T12:41:25.421Z,38.33
2019-02-16T12:42:45.402Z,37.33
2019-02-16T12:44:09.053Z,40.12
2019-02-16T12:45:39.158Z,39.18
2019-02-16T12:47:04.640Z,37.30
2019-02-16T12:48:39.256Z,43.40
2019-02-16T12:50:05.721Z,44.18
2019-02-16T12:51:29.488Z,42.20
2019-02-16T12:52:57.869Z,37.90
2019-02-16T12:54:41.069Z,40.25
2019-02-16T12:56:03.604Z,42.23
2019-02-16T12:57:21.632Z,41.50
2019-02-16T12:58:33.721Z,42.05
2019-02-16T13:00:04.972Z,43.13
2019-02-16T13:01:17.472Z,42.48
2019-02-16T13:02:33.135Z,47.00
2019-02-16T13:03:50.139Z,39.83
2019-02-16T13:05:30.286Z,43.65
2019-02-16T13:06:54.280Z,45.45
2019-02-16T13:08:28.361Z,41.18
2019-02-16T13:10:11.801Z,39.75
2019-02-16T13:11:46.114Z,39.55
2019-02-16T13:13:11.191Z,42.20
2019-02-16T13:14:36.511Z,43.02
2019-02-16T13:16:07.536Z,45.55
2019-02-16T13:17:32.725Z,44.45
2019-02-16T13:18:58.743Z,42.78
2019-02-16T13:20:26.706Z,45.03
2019-02-16T13:21:50.365Z,39.18
2019-02-16T13:23:21.808Z,42.38
2019-02-16T13:24:36.458Z,41.50
2019-02-16T13:26:13.842Z,42.98
2019-02-16T13:27:37.815Z,38.20
2019-02-16T13:28:52.271Z,39.73
2019-02-16T13:30:26.563Z,36.58
2019-02-16T13:31:51.865Z,43.20
2019-02-16T13:33:08.458Z,39.27
2019-02-16T13:34:23.324Z,41.65
2019-02-16T13:35:37.455Z,43.42
2019-02-16T13:37:01.330Z,43.25
2019-02-16T13:38:26.798Z,38.42
2019-02-16T13:39:57.961Z,40.17
2019-02-16T13:41:22.242Z,44.80
2019-02-16T13:42:43.040Z,41.23
2019-02-16T13:43:57.379Z,39.90
2019-02-16T13:45:18.986Z,43.92
2019-02-16T13:46:31.485Z,39.73
2019-02-16T13:48:05.289Z,40.58
2019-02-16T13:49:42.579Z,42.58
2019-02-16T13:51:04.282Z,39.95
2019-02-16T13:52:21.600Z,38.35
2019-02-16T13:53:41.685Z,39.85
2019-02-16T13:55:07.236Z,31.50
2019-02-16T13:56:41.586Z,36.63
2019-02-16T13:58:03.104Z,36.23
2019-02-16T13:59:34.235Z,38.63
2019-02-16T14:00:51.526Z,38.88
2019-02-16T14:02:05.283Z,37.40
2019-02-16T14:03:30.278Z,37.40
2019-02-16T14:04:58.435Z,35.08
2019-02-16T14:06:22.405Z,37.10
2019-02-16T14:07:52.017Z,34.70
2019-02-16T14:09:35.735Z,34.43
2019-02-16T14:10:51.926Z,30.85
2019-02-16T14:12:05.347Z,32.13
2019-02-16T14:13:39.141Z,31.90
2019-02-16T14:15:00.971Z,29.20
2019-02-16T14:16:23.288Z,33.55
2019-02-16T14:17:48.025Z,30.48
2019-02-16T14:18:54.168Z,35.68
2019-02-16T14:20:00.294Z,35.08
2019-02-16T14:21:06.554Z,27.50
2019-02-16T14:22:12.990Z,30.40
2019-02-16T14:23:19.248Z,33.63
2019-02-16T14:24:43.781Z,29.85
2019-02-16T14:25:50.413Z,25.15
2019-02-16T14:26:56.765Z,30.45
2019-02-16T14:28:03.094Z,28.12
2019-02-16T14:29:09.287Z,30.80
2019-02-16T14:30:15.568Z,28.40
2019-02-16T14:31:28.212Z,27.93
2019-02-16T14:32:29.698Z,31.80
2019-02-16T14:33:35.990Z,33.25
2019-02-16T14:34:42.317Z,30.17
2019-02-16T14:35:48.658Z,27.52
2019-02-16T14:36:54.718Z,30.40
2019-02-16T14:38:35.007Z,30.37
2019-02-16T14:39:41.135Z,27.70
2019-02-16T14:40:47.405Z,26.57
2019-02-16T14:41:54.473Z,29.60
2019-02-16T14:43:01.680Z,29.05
2019-02-16T14:44:07.780Z,27.77
2019-02-16T14:45:14.555Z,30.85
2019-02-16T14:46:20.872Z,32.03
2019-02-16T14:47:28.394Z,30.65
2019-02-16T14:48:34.608Z,30.20
2019-02-16T14:49:41.794Z,31.45
2019-02-16T14:50:48.048Z,31.82
2019-02-16T14:51:54.117Z,30.05
2019-02-16T14:53:01.580Z,29.92
2019-02-16T14:54:07.727Z,31.15
2019-02-16T14:55:14.383Z,32.38
2019-02-16T14:56:20.500Z,33.53
2019-02-16T14:57:26.574Z,30.48
2019-02-16T14:58:32.856Z,38.38
2019-02-16T14:59:39.078Z,47.30
2019-02-16T15:00:45.204Z,34.43
2019-02-16T15:01:51.362Z,33.13
2019-02-16T15:02:57.577Z,40.98
2019-02-16T15:04:03.796Z,35.08
2019-02-16T15:05:10.343Z,40.17
2019-02-16T15:06:16.618Z,32.48
2019-02-16T15:07:23.677Z,37.83
2019-02-16T15:08:29.742Z,35.00
2019-02-16T15:09:35.794Z,35.92
2019-02-16T15:10:42.003Z,33.55
2019-02-16T15:11:48.092Z,29.65
2019-02-16T15:12:54.157Z,35.05
2019-02-16T15:14:00.242Z,33.90
2019-02-16T15:15:07.030Z,36.08
2019-02-16T15:16:13.252Z,30.85
2019-02-16T15:17:19.421Z,32.93
2019-02-16T15:18:25.494Z,33.60
2019-02-16T15:19:31.597Z,33.10
2019-02-16T15:20:37.752Z,32.30
2019-02-16T15:21:44.211Z,36.48
2019-02-16T15:22:50.337Z,37.90
2019-02-16T15:23:57.392Z,39.75
2019-02-16T15:25:03.508Z,39.53
2019-02-16T15:26:09.673Z,36.10
2019-02-16T15:27:15.896Z,34.75
2019-02-16T15:28:22.042Z,33.58
2019-02-16T15:29:28.113Z,39.55
2019-02-16T15:30:34.163Z,37.98
2019-02-16T15:31:40.198Z,36.30
2019-02-16T15:32:46.252Z,36.33
2019-02-16T15:33:52.346Z,37.20
2019-02-16T15:34:59.480Z,39.23
2019-02-16T15:36:05.637Z,36.88
2019-02-16T15:37:11.687Z,41.40
2019-02-16T15:38:17.879Z,38.50
2019-02-16T15:39:23.864Z,42.53
2019-02-16T15:40:30.054Z,33.70
2019-02-16T15:41:36.177Z,51.92
2019-02-16T15:42:42.431Z,40.50
2019-02-16T15:43:49.557Z,47.65
2019-02-16T15:44:55.633Z,38.33
2019-02-16T15:46:01.752Z,44.18
2019-02-16T15:47:07.907Z,57.35
2019-02-16T15:48:13.959Z,49.77
2019-02-16T15:49:20.105Z,45.17
2019-02-16T15:50:26.839Z,48.10
2019-02-16T15:51:32.919Z,50.90
2019-02-16T15:52:39.202Z,41.77